Time;durP1;ratioP1;P1;durP2;ratioP2;P2;SDS_P1;SDS_P2;PMS_P1;PMS_P2;Temp;Humidity;BMP_temperature;BMP_pressure;BME280_temperature;BME280_humidity;BME280_pressure;Samples;Min_cycle;Max_cycle;Signal;HPM_P1;HPM_P2
2024/01/30 00:00:22;;;;;;;7.73;7.13;;;5.80;54.00;;;;;;21078;6702;117696;-80
2024/01/30 00:02:58;;;;;;;8.93;8.17;;;5.90;53.50;;;;;;21066;6694;115588;-81
2024/01/30 00:05:35;;;;;;;8.97;7.90;;;5.70;53.60;;;;;;21070;6694;117680;-84
2024/01/30 00:08:11;;;;;;;9.07;7.57;;;5.50;53.90;;;;;;21076;6694;117679;-80
2024/01/30 00:10:47;;;;;;;10.13;9.23;;;5.50;53.90;;;;;;20887;6694;304897;-80
2024/01/30 00:13:22;;;;;;;9.63;8.82;;;5.80;54.30;;;;;;20844;6694;277140;-79
2024/01/30 00:15:58;;;;;;;8.40;7.70;;;6.20;53.80;;;;;;21106;6692;67550;-80
2024/01/30 00:18:33;;;;;;;10.32;9.27;;;6.20;53.30;;;;;;20895;6694;320585;-80
2024/01/30 00:21:09;;;;;;;9.85;8.85;;;6.30;53.10;;;;;;20854;6700;305369;-80
2024/01/30 00:23:46;;;;;;;10.52;9.27;;;6.60;52.70;;;;;;20784;6701;277087;-80
2024/01/30 00:26:22;;;;;;;8.40;7.70;;;6.90;52.10;;;;;;21064;6701;67467;-80
2024/01/30 00:28:51;;;;;;;8.83;8.03;;;6.70;52.00;;;;;;21113;6694;67350;-80
2024/01/30 00:31:16;;;;;;;9.77;8.93;;;6.40;52.50;;;;;;20882;6750;304067;-80
2024/01/30 00:33:42;;;;;;;10.33;9.43;;;6.50;52.60;;;;;;20804;6750;336830;-79
2024/01/30 00:36:07;;;;;;;9.83;8.90;;;6.70;52.90;;;;;;20688;6807;307811;-80
2024/01/30 00:38:33;;;;;;;10.47;9.57;;;6.90;51.50;;;;;;20705;6807;277029;-80
2024/01/30 00:41:00;;;;;;;9.57;8.65;;;7.00;51.10;;;;;;20925;6807;67590;-80
2024/01/30 00:43:26;;;;;;;9.87;8.37;;;6.80;51.20;;;;;;20918;6807;67142;-80
2024/01/30 00:45:52;;;;;;;10.73;9.73;;;6.50;51.70;;;;;;20709;6807;277060;-80
2024/01/30 00:48:16;;;;;;;10.07;9.07;;;6.50;52.40;;;;;;20916;6807;67716;-79
2024/01/30 00:50:42;;;;;;;8.65;7.82;;;6.40;52.00;;;;;;20922;6807;69464;-80
2024/01/30 00:53:08;;;;;;;8.67;7.77;;;6.10;52.20;;;;;;20917;6807;67708;-79
2024/01/30 00:55:34;;;;;;;9.15;8.45;;;5.90;52.60;;;;;;20709;6807;306199;-79
2024/01/30 00:58:01;;;;;;;9.27;8.50;;;6.00;53.30;;;;;;20924;6807;67747;-79
2024/01/30 01:00:30;;;;;;;8.50;7.80;;;6.00;53.10;;;;;;20921;6807;67251;-79
2024/01/30 01:02:56;;;;;;;8.90;8.10;;;5.60;53.50;;;;;;20916;6807;68008;-79
2024/01/30 01:05:21;;;;;;;9.10;8.17;;;5.60;53.50;;;;;;20918;6807;68557;-79
2024/01/30 01:07:48;;;;;;;10.37;9.47;;;5.70;53.80;;;;;;20698;6807;306586;-78
2024/01/30 01:10:13;;;;;;;9.03;8.13;;;5.70;53.80;;;;;;20916;6807;67698;-80
2024/01/30 01:12:39;;;;;;;9.55;8.25;;;5.70;53.40;;;;;;20918;6807;67212;-80
2024/01/30 01:15:05;;;;;;;9.10;8.27;;;5.50;53.40;;;;;;20919;6807;68055;-80
2024/01/30 01:17:32;;;;;;;11.23;8.17;;;5.40;53.80;;;;;;20913;6807;70890;-80
2024/01/30 01:19:59;;;;;;;11.07;10.07;;;5.40;54.50;;;;;;20710;6807;306654;-80
2024/01/30 01:22:25;;;;;;;10.93;10.00;;;5.80;54.00;;;;;;20704;6807;279481;-80
2024/01/30 01:24:51;;;;;;;10.57;9.67;;;5.80;54.00;;;;;;20705;6807;306615;-78
2024/01/30 01:27:16;;;;;;;9.83;9.03;;;6.20;53.60;;;;;;20704;6807;277480;-79
2024/01/30 01:29:43;;;;;;;10.05;9.15;;;6.40;53.00;;;;;;20929;6805;67574;-78
2024/01/30 01:32:07;;;;;;;9.23;8.38;;;6.30;52.90;;;;;;20918;6806;67436;-79
2024/01/30 01:34:33;;;;;;;8.82;8.02;;;6.00;53.20;;;;;;20921;6806;67201;-78
2024/01/30 01:37:01;;;;;;;10.73;9.90;;;5.90;54.10;;;;;;20706;6805;276694;-78
2024/01/30 01:39:26;;;;;;;9.67;8.67;;;5.90;54.00;;;;;;20913;6806;67654;-78
2024/01/30 01:41:53;;;;;;;8.52;7.72;;;5.90;53.80;;;;;;20922;6807;67140;-79
2024/01/30 01:44:21;;;;;;;9.50;8.17;;;5.70;53.90;;;;;;20920;6807;67914;-79
2024/01/30 01:46:47;;;;;;;11.17;10.17;;;5.70;54.40;;;;;;20703;6807;277027;-79
2024/01/30 01:49:13;;;;;;;10.63;9.63;;;5.70;54.40;;;;;;20915;6807;89912;-79
2024/01/30 01:51:39;;;;;;;10.63;9.83;;;5.80;54.10;;;;;;20703;6807;278341;-79
2024/01/30 01:54:04;;;;;;;9.65;8.68;;;6.00;54.30;;;;;;20911;6807;67606;-79
2024/01/30 01:56:29;;;;;;;10.90;10.00;;;6.00;54.00;;;;;;20696;6807;337721;-79
2024/01/30 01:58:55;;;;;;;11.53;10.33;;;6.10;53.90;;;;;;20706;6807;277624;-80
2024/01/30 02:01:20;;;;;;;10.10;9.10;;;6.40;53.40;;;;;;20913;6807;68087;-80
2024/01/30 02:03:46;;;;;;;10.20;9.37;;;6.40;53.30;;;;;;20701;6807;319908;-79
2024/01/30 02:06:17;;;;;;;10.67;9.80;;;6.70;52.60;;;;;;20700;6807;277604;-77
2024/01/30 02:08:43;;;;;;;10.32;9.38;;;6.70;52.60;;;;;;20702;6807;308288;-79
2024/01/30 02:11:09;;;;;;;10.27;9.40;;;6.90;52.40;;;;;;20701;6807;337534;-79
2024/01/30 02:13:34;;;;;;;9.10;8.40;;;7.00;51.60;;;;;;20916;6805;67540;-80
2024/01/30 02:15:59;;;;;;;8.90;8.10;;;6.80;51.60;;;;;;20920;6805;67912;-79
2024/01/30 02:18:25;;;;;;;9.83;9.03;;;6.50;52.10;;;;;;20700;6807;338094;-79
2024/01/30 02:20:52;;;;;;;10.57;9.67;;;6.50;52.40;;;;;;20708;6807;306053;-80
2024/01/30 02:23:18;;;;;;;9.10;8.40;;;6.70;51.80;;;;;;20910;6807;67471;-79
2024/01/30 02:25:47;;;;;;;10.50;9.60;;;6.60;51.60;;;;;;20698;6807;308042;-79
2024/01/30 02:28:15;;;;;;;10.00;9.23;;;6.60;51.50;;;;;;20703;6807;279842;-79
2024/01/30 02:30:46;;;;;;;10.30;9.50;;;6.70;51.10;;;;;;20705;6805;306602;-79
2024/01/30 02:33:12;;;;;;;9.20;8.40;;;6.60;50.40;;;;;;20914;6807;67628;-79
2024/01/30 02:35:37;;;;;;;10.10;9.30;;;6.60;50.40;;;;;;20698;6807;306126;-80
2024/01/30 02:38:04;;;;;;;10.57;9.50;;;6.50;50.60;;;;;;20702;6807;306538;-79
2024/01/30 02:40:29;;;;;;;9.00;8.10;;;6.60;50.50;;;;;;20907;6804;67696;-79
2024/01/30 02:42:54;;;;;;;8.57;7.77;;;6.40;50.60;;;;;;20902;6806;67294;-79
2024/01/30 02:45:23;;;;;;;9.43;8.48;;;6.00;51.10;;;;;;20917;6806;68015;-80
2024/01/30 02:47:48;;;;;;;10.20;9.30;;;5.70;51.60;;;;;;20706;6806;277051;-78
2024/01/30 02:50:15;;;;;;;10.23;9.43;;;5.80;52.40;;;;;;20703;6806;306685;-81
2024/01/30 02:52:40;;;;;;;8.60;8.00;;;5.90;52.10;;;;;;20918;6807;68972;-78
2024/01/30 02:55:06;;;;;;;9.37;8.67;;;5.90;51.70;;;;;;20919;6807;67578;-79
2024/01/30 02:57:34;;;;;;;8.13;7.43;;;5.60;52.00;;;;;;20910;6807;68714;-79
2024/01/30 02:59:58;;;;;;;9.85;9.05;;;5.40;52.50;;;;;;20702;6807;307466;-79
2024/01/30 03:02:25;;;;;;;9.13;8.43;;;5.50;53.10;;;;;;20917;6807;67667;-79
2024/01/30 03:04:51;;;;;;;10.52;9.65;;;5.70;53.60;;;;;;20704;6807;336921;-79
2024/01/30 03:07:17;;;;;;;10.45;9.55;;;5.60;53.50;;;;;;20701;6807;309797;-79
2024/01/30 03:09:43;;;;;;;11.03;10.17;;;6.00;53.30;;;;;;20706;6807;337295;-79
2024/01/30 03:12:09;;;;;;;9.60;8.75;;;6.20;52.70;;;;;;20910;6807;74433;-78
2024/01/30 03:14:34;;;;;;;11.53;10.53;;;6.20;52.70;;;;;;20705;6807;306506;-79
2024/01/30 03:17:00;;;;;;;9.52;8.73;;;6.20;53.00;;;;;;20915;6807;72432;-79
2024/01/30 03:19:27;;;;;;;10.40;9.60;;;6.10;52.90;;;;;;20675;6807;328876;-79
2024/01/30 03:21:53;;;;;;;11.20;10.30;;;6.20;53.30;;;;;;20699;6807;307445;-79
2024/01/30 03:24:18;;;;;;;10.37;9.47;;;6.50;53.00;;;;;;20911;6807;68101;-80
2024/01/30 03:26:45;;;;;;;8.75;8.00;;;6.10;53.50;;;;;;20906;6807;67642;-80
2024/01/30 03:29:10;;;;;;;8.70;7.90;;;6.10;53.00;;;;;;20908;6807;73029;-80
2024/01/30 03:31:36;;;;;;;11.00;10.07;;;5.90;53.30;;;;;;20680;6807;278408;-80
2024/01/30 03:34:01;;;;;;;9.07;8.27;;;6.00;53.30;;;;;;20889;6807;67641;-80
2024/01/30 03:36:27;;;;;;;10.83;10.03;;;5.90;53.10;;;;;;20700;6807;321954;-79
2024/01/30 03:38:52;;;;;;;9.77;8.88;;;6.00;52.80;;;;;;20923;6807;67272;-80
2024/01/30 03:41:19;;;;;;;10.47;9.70;;;5.90;52.60;;;;;;20703;6807;336345;-80
2024/01/30 03:43:46;;;;;;;9.07;8.33;;;6.00;52.90;;;;;;20919;6807;67147;-80
2024/01/30 03:46:13;;;;;;;8.83;8.03;;;5.90;52.70;;;;;;20917;6807;67422;-80
2024/01/30 03:48:39;;;;;;;8.53;7.73;;;5.70;53.00;;;;;;20923;6807;67685;-80
2024/01/30 03:51:04;;;;;;;10.00;9.20;;;5.60;53.40;;;;;;20706;6807;309433;-80
2024/01/30 03:53:31;;;;;;;10.47;9.67;;;5.60;53.40;;;;;;20701;6805;305635;-80
2024/01/30 03:55:57;;;;;;;9.43;8.47;;;5.90;52.70;;;;;;20921;6806;68176;-80
2024/01/30 03:58:22;;;;;;;8.90;8.10;;;5.80;52.40;;;;;;20922;6806;71476;-80
2024/01/30 04:00:50;;;;;;;9.73;8.97;;;5.60;52.80;;;;;;20705;6806;335938;-80
2024/01/30 04:03:15;;;;;;;9.98;9.27;;;5.60;53.20;;;;;;20706;6807;277634;-80
2024/01/30 04:05:43;;;;;;;8.80;8.10;;;5.80;52.60;;;;;;20928;6807;67513;-78
2024/01/30 04:08:09;;;;;;;9.27;8.50;;;5.60;53.00;;;;;;20914;6807;67983;-79
2024/01/30 04:10:35;;;;;;;8.77;7.90;;;5.40;53.40;;;;;;20924;6807;68955;-76
2024/01/30 04:13:01;;;;;;;9.50;8.27;;;5.40;53.40;;;;;;20915;6807;67129;-76
2024/01/30 04:15:27;;;;;;;8.10;7.32;;;5.20;53.70;;;;;;20920;6807;68170;-77
2024/01/30 04:17:52;;;;;;;10.33;9.53;;;5.00;53.90;;;;;;20704;6807;306515;-77
2024/01/30 04:20:19;;;;;;;9.13;8.43;;;5.30;54.10;;;;;;20919;6807;90271;-79
2024/01/30 04:22:44;;;;;;;9.40;8.00;;;5.20;54.00;;;;;;20917;6807;67871;-76
2024/01/30 04:25:10;;;;;;;8.77;7.97;;;5.10;54.10;;;;;;20916;6807;68127;-76
2024/01/30 04:27:35;;;;;;;8.77;8.02;;;5.00;54.20;;;;;;20916;6807;67613;-76
2024/01/30 04:30:01;;;;;;;13.32;12.15;;;4.80;54.30;;;;;;20703;6807;335531;-77
2024/01/30 04:32:26;;;;;;;17.83;16.13;;;4.90;54.20;;;;;;20702;6807;337080;-76
2024/01/30 04:34:53;;;;;;;15.13;13.43;;;5.30;53.40;;;;;;20921;6807;67540;-76
2024/01/30 04:37:18;;;;;;;11.60;10.50;;;5.20;53.30;;;;;;20700;6807;307540;-76
2024/01/30 04:39:44;;;;;;;8.48;7.87;;;5.30;53.60;;;;;;20921;6807;67135;-76
2024/01/30 04:42:10;;;;;;;9.43;8.43;;;5.10;54.20;;;;;;20921;6807;68012;-76
2024/01/30 04:44:36;;;;;;;8.13;7.43;;;5.00;53.40;;;;;;20919;6807;67693;-76
2024/01/30 04:47:03;;;;;;;9.80;9.00;;;4.90;53.40;;;;;;20702;6807;306488;-76
2024/01/30 04:49:29;;;;;;;9.17;8.37;;;4.80;53.90;;;;;;20914;6807;68071;-76
2024/01/30 04:51:54;;;;;;;8.40;7.60;;;4.60;53.40;;;;;;20914;6807;71321;-76
2024/01/30 04:54:20;;;;;;;8.47;7.80;;;4.50;53.30;;;;;;20914;6807;67388;-76
2024/01/30 04:56:46;;;;;;;9.63;8.80;;;4.40;53.70;;;;;;20706;6807;278015;-76
2024/01/30 04:59:13;;;;;;;10.38;9.55;;;4.80;53.70;;;;;;20707;6807;301634;-76
2024/01/30 05:01:39;;;;;;;8.53;7.80;;;4.70;53.40;;;;;;20920;6807;73470;-76
2024/01/30 05:04:05;;;;;;;8.85;7.97;;;4.70;53.20;;;;;;20918;6805;68190;-76
2024/01/30 05:06:30;;;;;;;8.55;7.78;;;4.50;53.40;;;;;;20913;6806;67438;-76
2024/01/30 05:08:57;;;;;;;10.60;9.57;;;4.30;53.90;;;;;;20705;6806;337248;-76
2024/01/30 05:11:23;;;;;;;10.57;9.65;;;4.40;54.10;;;;;;20711;6806;277980;-75
2024/01/30 05:13:49;;;;;;;9.27;8.37;;;4.70;53.40;;;;;;20920;6806;68088;-76
2024/01/30 05:16:14;;;;;;;10.70;9.80;;;4.70;53.40;;;;;;20704;6807;306672;-77
2024/01/30 05:18:40;;;;;;;8.38;7.68;;;4.70;53.40;;;;;;20911;6807;67453;-76
2024/01/30 05:21:06;;;;;;;11.82;8.23;;;4.40;53.50;;;;;;20923;6807;67659;-77
2024/01/30 05:23:32;;;;;;;9.47;8.50;;;4.40;53.50;;;;;;20914;6807;67634;-77
2024/01/30 05:26:00;;;;;;;9.05;8.30;;;4.30;53.90;;;;;;20922;6807;67691;-76
2024/01/30 05:28:24;;;;;;;10.35;9.45;;;4.10;54.30;;;;;;20702;6807;276962;-77
2024/01/30 05:30:50;;;;;;;8.87;8.17;;;4.20;54.40;;;;;;20917;6807;67271;-76
2024/01/30 05:33:17;;;;;;;8.47;7.77;;;4.10;54.00;;;;;;20909;6807;68102;-77
2024/01/30 05:35:43;;;;;;;10.43;9.53;;;4.10;54.30;;;;;;20708;6807;307792;-79
2024/01/30 05:38:08;;;;;;;10.77;9.67;;;4.20;54.70;;;;;;20704;6807;292652;-76
2024/01/30 05:40:34;;;;;;;11.33;10.20;;;4.60;54.30;;;;;;20710;6807;277945;-77
2024/01/30 05:43:01;;;;;;;10.97;10.07;;;4.80;53.70;;;;;;20703;6807;307442;-76
2024/01/30 05:45:26;;;;;;;9.00;8.20;;;5.10;53.50;;;;;;20913;6807;67209;-78
2024/01/30 05:47:53;;;;;;;11.25;10.25;;;5.00;54.10;;;;;;20704;6807;318767;-79
2024/01/30 05:50:23;;;;;;;9.10;8.40;;;4.90;53.80;;;;;;20918;6807;68103;-77
2024/01/30 05:52:49;;;;;;;9.30;8.40;;;4.60;54.20;;;;;;20914;6807;71462;-78
2024/01/30 05:55:15;;;;;;;9.93;8.87;;;4.60;54.20;;;;;;20922;6807;67141;-78
2024/01/30 05:57:40;;;;;;;10.70;9.82;;;4.50;54.70;;;;;;20686;6807;307724;-77
2024/01/30 06:00:07;;;;;;;9.30;8.50;;;4.60;54.80;;;;;;20933;6807;67186;-78
2024/01/30 06:02:32;;;;;;;9.20;8.37;;;4.60;54.50;;;;;;20925;6807;68116;-82
2024/01/30 06:04:58;;;;;;;10.13;9.17;;;4.50;54.70;;;;;;20726;6807;307208;-80
2024/01/30 06:07:24;;;;;;;10.37;9.60;;;4.70;54.90;;;;;;20701;6807;306524;-78
2024/01/30 06:09:49;;;;;;;9.18;8.38;;;5.00;53.90;;;;;;20928;6807;69439;-83
2024/01/30 06:12:15;;;;;;;10.20;9.43;;;5.00;53.50;;;;;;20719;6807;306527;-83
2024/01/30 06:14:42;;;;;;;8.90;8.20;;;5.00;53.60;;;;;;20922;6805;70537;-78
2024/01/30 06:17:06;;;;;;;8.40;7.70;;;5.00;53.50;;;;;;20910;6806;67713;-77
2024/01/30 06:19:32;;;;;;;8.25;7.45;;;4.50;54.10;;;;;;20916;6806;71886;-81
2024/01/30 06:21:59;;;;;;;8.80;8.00;;;4.50;54.10;;;;;;20921;6806;67297;-79
2024/01/30 06:24:28;;;;;;;7.90;7.20;;;4.30;54.40;;;;;;20909;6806;67225;-80
2024/01/30 06:26:53;;;;;;;8.30;7.57;;;4.20;54.70;;;;;;20919;6805;68095;-79
2024/01/30 06:29:20;;;;;;;10.20;9.40;;;4.20;55.10;;;;;;20706;6807;307274;-79
2024/01/30 06:31:45;;;;;;;9.13;8.23;;;4.20;55.10;;;;;;20922;6807;69300;-79
2024/01/30 06:34:11;;;;;;;10.50;9.60;;;4.30;54.80;;;;;;20702;6807;277861;-79
2024/01/30 06:36:36;;;;;;;10.60;9.70;;;4.40;54.40;;;;;;20698;6807;306166;-79
2024/01/30 06:39:03;;;;;;;10.40;9.60;;;4.70;53.70;;;;;;20700;6807;307027;-80
2024/01/30 06:41:29;;;;;;;9.80;9.07;;;5.00;53.40;;;;;;20707;6807;336401;-80
2024/01/30 06:43:54;;;;;;;9.05;8.30;;;5.20;53.00;;;;;;20918;6807;68057;-80
2024/01/30 06:46:20;;;;;;;10.50;9.50;;;5.10;53.10;;;;;;20700;6807;337573;-79
2024/01/30 06:48:46;;;;;;;9.13;8.40;;;5.10;53.30;;;;;;20920;6807;67194;-80
2024/01/30 06:51:12;;;;;;;8.50;7.70;;;4.90;53.20;;;;;;20922;6807;69424;-80
2024/01/30 06:53:37;;;;;;;9.52;8.82;;;4.60;53.50;;;;;;20705;6807;307031;-80
2024/01/30 06:56:02;;;;;;;10.23;9.23;;;4.70;53.60;;;;;;20727;6807;332039;-80
2024/01/30 06:58:28;;;;;;;8.27;7.57;;;4.90;53.30;;;;;;21002;6807;73386;-78
2024/01/30 07:00:54;;;;;;;8.57;7.77;;;4.80;53.00;;;;;;20999;6807;67105;-78
2024/01/30 07:03:19;;;;;;;8.33;7.63;;;4.60;53.40;;;;;;20985;6807;67532;-78
2024/01/30 07:05:45;;;;;;;8.30;7.60;;;4.30;53.80;;;;;;20998;6807;67575;-78
2024/01/30 07:08:11;;;;;;;8.17;7.47;;;4.10;54.20;;;;;;20982;6807;68185;-79
2024/01/30 07:10:37;;;;;;;10.00;9.10;;;3.90;54.50;;;;;;20706;6807;276708;-81
2024/01/30 07:13:05;;;;;;;10.27;9.37;;;4.10;54.80;;;;;;20702;6807;331965;-80
2024/01/30 07:15:29;;;;;;;8.77;7.97;;;4.50;54.40;;;;;;20960;6807;67590;-80
2024/01/30 07:17:55;;;;;;;10.10;9.20;;;4.50;54.00;;;;;;20781;6807;275952;-79
2024/01/30 07:20:21;;;;;;;10.48;9.60;;;4.60;54.10;;;;;;20781;6807;277596;-79
2024/01/30 07:22:47;;;;;;;9.60;8.85;;;4.90;53.60;;;;;;20773;6807;277930;-76
2024/01/30 07:25:12;;;;;;;8.98;8.15;;;5.20;52.90;;;;;;20925;6805;68081;-77
2024/01/30 07:27:37;;;;;;;10.07;8.23;;;5.10;52.70;;;;;;20921;6805;67758;-79
2024/01/30 07:30:07;;;;;;;7.80;7.10;;;4.60;53.70;;;;;;20926;6806;71414;-81
2024/01/30 07:32:34;;;;;;;7.60;7.10;;;4.40;54.70;;;;;;20922;6805;67653;-76
2024/01/30 07:34:59;;;;;;;8.70;7.80;;;4.40;54.10;;;;;;20927;6806;67808;-79
2024/01/30 07:37:25;;;;;;;9.27;8.57;;;4.30;54.60;;;;;;20713;6806;302327;-81
2024/01/30 07:39:51;;;;;;;9.75;8.93;;;4.70;54.70;;;;;;20934;6807;70787;-80
2024/01/30 07:42:17;;;;;;;12.40;11.20;;;4.70;54.70;;;;;;20921;6807;71737;-80
2024/01/30 07:44:42;;;;;;;12.97;11.87;;;4.70;54.90;;;;;;20708;6807;278599;-79
2024/01/30 07:47:08;;;;;;;11.63;10.53;;;4.90;54.90;;;;;;20704;6805;307813;-79
2024/01/30 07:49:33;;;;;;;10.03;9.30;;;5.40;54.30;;;;;;20701;6807;307736;-79
2024/01/30 07:52:00;;;;;;;7.85;7.28;;;5.80;53.30;;;;;;20933;6807;68069;-79
2024/01/30 07:54:25;;;;;;;9.30;8.60;;;5.80;53.30;;;;;;20709;6807;307334;-79
2024/01/30 07:56:53;;;;;;;8.83;8.13;;;6.20;51.70;;;;;;20711;6807;277852;-80
2024/01/30 07:59:21;;;;;;;8.30;7.40;;;6.20;51.70;;;;;;20927;6807;67704;-80
2024/01/30 08:01:44;;;;;;;7.62;7.03;;;6.10;51.70;;;;;;20919;6807;67381;-80
2024/01/30 08:04:09;;;;;;;9.27;8.47;;;5.90;52.20;;;;;;20708;6807;298818;-80
2024/01/30 08:06:35;;;;;;;9.27;8.43;;;6.00;52.70;;;;;;20707;6807;277552;-80
2024/01/30 08:09:00;;;;;;;8.57;7.65;;;6.30;52.10;;;;;;20924;6807;69694;-79
2024/01/30 08:11:28;;;;;;;9.20;8.40;;;6.30;51.80;;;;;;20706;6807;334462;-79
2024/01/30 08:13:55;;;;;;;9.00;8.40;;;6.40;51.50;;;;;;20698;6807;277106;-79
2024/01/30 08:16:20;;;;;;;8.87;8.17;;;6.60;51.10;;;;;;20700;6807;306990;-79
2024/01/30 08:18:47;;;;;;;8.77;8.07;;;6.80;50.60;;;;;;20701;6807;307030;-79
2024/01/30 08:21:13;;;;;;;8.40;7.40;;;7.00;50.10;;;;;;20916;6805;69117;-79
2024/01/30 08:23:39;;;;;;;8.57;7.77;;;6.90;50.30;;;;;;20902;6807;67725;-79
2024/01/30 08:26:05;;;;;;;9.82;8.93;;;6.70;50.80;;;;;;20700;6807;336013;-79
2024/01/30 08:28:32;;;;;;;9.63;8.83;;;6.70;50.90;;;;;;20703;6807;306171;-79
2024/01/30 08:30:58;;;;;;;9.07;8.48;;;7.00;50.90;;;;;;20705;6807;277339;-79
2024/01/30 08:33:24;;;;;;;9.43;8.63;;;7.50;50.20;;;;;;20709;6807;308093;-79
2024/01/30 08:35:50;;;;;;;7.80;7.20;;;7.50;50.20;;;;;;20922;6807;73206;-79
2024/01/30 08:38:15;;;;;;;8.67;8.03;;;7.50;50.20;;;;;;20703;6805;276960;-79
2024/01/30 08:40:42;;;;;;;8.32;7.62;;;7.60;50.90;;;;;;20921;6806;67900;-80
2024/01/30 08:43:10;;;;;;;8.33;7.63;;;7.60;50.90;;;;;;20920;6806;70857;-81
2024/01/30 08:45:44;;;;;;;6.25;5.75;;;7.50;51.30;;;;;;20910;6806;69454;-80
2024/01/30 08:48:10;;;;;;;5.83;5.33;;;7.40;51.50;;;;;;20917;6806;69831;-80
2024/01/30 08:50:36;;;;;;;5.30;4.90;;;7.40;52.30;;;;;;20921;6807;68081;-80
2024/01/30 08:53:02;;;;;;;5.80;5.30;;;7.30;52.30;;;;;;20920;6807;68141;-80
2024/01/30 08:55:28;;;;;;;5.73;5.07;;;7.40;52.40;;;;;;20925;6807;67138;-80
2024/01/30 08:57:53;;;;;;;5.78;5.28;;;7.50;52.50;;;;;;20920;6805;67140;-80
2024/01/30 09:00:20;;;;;;;6.72;6.18;;;7.60;52.80;;;;;;20923;6807;73517;-80
2024/01/30 09:02:46;;;;;;;7.50;6.80;;;7.60;52.00;;;;;;20916;6807;68270;-80
2024/01/30 09:05:13;;;;;;;8.17;6.90;;;7.60;52.00;;;;;;20917;6807;67483;-80
2024/01/30 09:07:38;;;;;;;6.93;6.33;;;7.50;51.80;;;;;;20905;6807;72645;-80
2024/01/30 09:10:04;;;;;;;9.27;6.22;;;7.50;51.90;;;;;;20924;6807;67653;-80
2024/01/30 09:12:30;;;;;;;8.27;7.57;;;7.40;52.10;;;;;;20916;6807;67635;-79
2024/01/30 09:14:57;;;;;;;9.03;8.30;;;7.40;52.10;;;;;;20919;6807;67833;-80
2024/01/30 09:17:23;;;;;;;8.65;7.93;;;7.60;51.30;;;;;;20708;6807;306586;-80
2024/01/30 09:19:49;;;;;;;7.90;7.30;;;7.50;51.20;;;;;;20918;6807;68518;-80
2024/01/30 09:22:15;;;;;;;8.47;7.87;;;7.60;51.00;;;;;;20706;6807;277416;-80
2024/01/30 09:24:42;;;;;;;8.80;8.10;;;7.80;50.50;;;;;;20705;6807;307627;-80
2024/01/30 09:27:07;;;;;;;8.68;7.85;;;8.20;49.80;;;;;;20703;6807;317142;-80
2024/01/30 09:29:34;;;;;;;8.00;7.33;;;8.50;49.40;;;;;;20917;6807;68030;-80
2024/01/30 09:31:59;;;;;;;8.37;7.77;;;8.80;49.40;;;;;;20701;6807;336067;-80
2024/01/30 09:34:25;;;;;;;7.87;7.27;;;8.70;49.20;;;;;;20917;6807;67568;-80
2024/01/30 09:36:51;;;;;;;8.90;8.20;;;8.80;49.10;;;;;;20703;6805;277034;-81
2024/01/30 09:39:19;;;;;;;8.30;7.70;;;8.90;48.80;;;;;;20760;6601;289168;-82
2024/01/30 09:41:55;;;;;;;7.73;7.23;;;9.10;47.90;;;;;;21044;6697;117970;-83
2024/01/30 09:44:32;;;;;;;8.37;7.67;;;9.00;48.80;;;;;;20919;6698;117626;-83
2024/01/30 09:47:09;;;;;;;6.97;6.37;;;9.00;48.70;;;;;;21084;6698;116183;-83
2024/01/30 09:49:47;;;;;;;7.70;7.10;;;8.80;49.20;;;;;;21024;6698;119721;-82
2024/01/30 09:52:25;;;;;;;7.63;6.93;;;8.70;49.50;;;;;;21017;6712;117766;-82
2024/01/30 09:55:01;;;;;;;7.10;6.43;;;8.60;49.90;;;;;;20873;6713;117453;-83
2024/01/30 09:57:37;;;;;;;7.77;7.07;;;8.50;50.10;;;;;;21070;6706;139907;-83
2024/01/30 10:00:12;;;;;;;8.07;7.37;;;8.40;50.30;;;;;;21080;6698;116614;-84
2024/01/30 10:02:49;;;;;;;7.70;6.97;;;8.40;50.50;;;;;;21006;6713;116735;-84
2024/01/30 10:05:30;;;;;;;7.93;7.20;;;8.30;50.50;;;;;;21071;6698;117054;-82
2024/01/30 10:08:09;;;;;;;9.23;8.53;;;8.30;50.70;;;;;;20852;6698;304926;-82
2024/01/30 10:10:42;;;;;;;8.00;7.40;;;8.50;49.60;;;;;;21066;6698;117292;-86
2024/01/30 10:13:18;;;;;;;9.83;7.80;;;8.60;49.20;;;;;;21037;6698;117471;-82
2024/01/30 10:15:56;;;;;;;9.02;8.23;;;8.70;49.30;;;;;;20845;6699;275589;-82
2024/01/30 10:18:33;;;;;;;7.33;6.83;;;8.90;50.00;;;;;;21075;6698;116631;-83
2024/01/30 10:21:09;;;;;;;8.45;7.70;;;8.80;49.20;;;;;;20862;6701;317088;-84
2024/01/30 10:23:44;;;;;;;8.17;7.47;;;9.10;48.40;;;;;;20952;6698;117054;-83
2024/01/30 10:26:22;;;;;;;7.37;6.77;;;9.20;48.40;;;;;;21073;6698;116579;-84
2024/01/30 10:28:58;;;;;;;8.53;7.67;;;9.10;48.80;;;;;;20796;6714;288868;-83
2024/01/30 10:31:35;;;;;;;8.60;7.90;;;9.60;47.00;;;;;;20849;6713;276469;-82
2024/01/30 10:34:10;;;;;;;9.23;8.53;;;9.60;46.90;;;;;;20814;6679;306525;-83
2024/01/30 10:36:46;;;;;;;8.87;8.00;;;9.90;46.40;;;;;;21132;6679;117072;-82
2024/01/30 10:39:22;;;;;;;8.90;8.20;;;9.80;46.60;;;;;;20814;6714;279753;-83
2024/01/30 10:41:57;;;;;;;8.40;7.60;;;9.90;46.60;;;;;;21066;6694;117002;-86
2024/01/30 10:44:46;;;;;;;9.80;8.90;;;9.80;46.90;;;;;;20739;6694;306600;-82
2024/01/30 10:47:23;;;;;;;9.43;7.90;;;9.90;46.60;;;;;;21064;6694;117853;-82
2024/01/30 10:49:57;;;;;;;8.57;7.97;;;9.80;47.00;;;;;;20852;6694;300164;-82
2024/01/30 10:52:33;;;;;;;8.13;7.43;;;9.80;46.40;;;;;;21127;6682;119642;-81
2024/01/30 10:55:11;;;;;;;8.88;8.15;;;9.90;46.40;;;;;;20751;6679;307839;-81
2024/01/30 10:57:47;;;;;;;8.07;7.27;;;9.90;47.30;;;;;;21113;6679;116690;-82
2024/01/30 11:00:24;;;;;;;8.27;7.47;;;9.90;46.70;;;;;;21130;6679;116575;-84
2024/01/30 11:02:59;;;;;;;9.13;8.33;;;9.80;47.20;;;;;;20898;6679;306151;-82
2024/01/30 11:05:35;;;;;;;12.27;10.70;;;9.90;46.60;;;;;;21115;6679;116571;-85
2024/01/30 11:08:12;;;;;;;15.70;13.67;;;9.90;46.90;;;;;;20920;6679;305495;-82
2024/01/30 11:10:49;;;;;;;26.33;17.17;;;10.10;44.80;;;;;;20916;6679;304238;-84
2024/01/30 11:13:32;;;;;;;10.77;8.40;;;10.30;45.40;;;;;;21040;6694;117163;-82
2024/01/30 11:16:07;;;;;;;23.17;13.17;;;10.30;44.90;;;;;;20926;6681;275179;-82
2024/01/30 11:18:44;;;;;;;26.97;16.37;;;10.40;43.80;;;;;;20924;6679;294741;-82
2024/01/30 11:21:20;;;;;;;19.23;13.40;;;10.60;43.90;;;;;;20852;6694;301894;-87
2024/01/30 11:23:57;;;;;;;11.00;9.87;;;10.90;43.10;;;;;;20782;6691;278317;-81
2024/01/30 11:26:32;;;;;;;9.53;8.73;;;11.10;42.80;;;;;;20843;6694;277147;-83
2024/01/30 11:29:09;;;;;;;9.00;8.30;;;11.40;42.50;;;;;;20831;6703;306516;-84
2024/01/30 11:31:53;;;;;;;8.73;8.03;;;11.40;42.60;;;;;;20748;6729;307862;-85
2024/01/30 11:34:29;;;;;;;8.70;8.00;;;11.50;42.20;;;;;;20698;6711;338454;-80
2024/01/30 11:37:05;;;;;;;8.80;7.90;;;11.60;42.00;;;;;;21128;6680;116698;-80
2024/01/30 11:39:41;;;;;;;8.57;7.87;;;11.40;42.10;;;;;;20750;6728;312010;-82
2024/01/30 11:42:16;;;;;;;8.40;7.30;;;11.40;42.10;;;;;;21021;6718;117172;-80
2024/01/30 11:44:52;;;;;;;7.23;6.63;;;11.30;42.80;;;;;;20880;6726;117160;-82
2024/01/30 11:47:28;;;;;;;8.50;7.80;;;11.10;43.20;;;;;;20927;6680;285744;-82
2024/01/30 11:50:06;;;;;;;8.07;7.47;;;11.10;43.20;;;;;;20904;6680;302520;-81
2024/01/30 11:52:41;;;;;;;7.67;7.00;;;11.40;42.90;;;;;;21060;6714;116838;-80
2024/01/30 11:55:17;;;;;;;8.40;7.80;;;11.40;43.30;;;;;;20608;6781;308568;-81
2024/01/30 11:57:55;;;;;;;7.43;6.77;;;11.40;42.80;;;;;;21129;6680;116717;-81
2024/01/30 12:00:32;;;;;;;7.60;7.00;;;11.20;43.80;;;;;;21151;6680;115819;-79
2024/01/30 12:03:07;;;;;;;8.80;8.00;;;11.20;43.70;;;;;;20898;6680;286154;-81
2024/01/30 12:05:43;;;;;;;8.37;7.23;;;11.40;43.30;;;;;;21031;6695;117773;-80
2024/01/30 12:08:18;;;;;;;7.78;7.18;;;11.40;43.50;;;;;;20845;6700;304968;-81
2024/01/30 12:10:57;;;;;;;9.93;7.70;;;11.50;43.00;;;;;;21041;6715;116964;-81
2024/01/30 12:13:33;;;;;;;8.88;8.18;;;11.50;43.30;;;;;;20741;6712;307089;-82
2024/01/30 12:16:10;;;;;;;8.27;7.27;;;11.70;43.50;;;;;;21096;6694;117471;-81
2024/01/30 12:18:45;;;;;;;7.50;7.00;;;11.60;43.40;;;;;;21141;6694;116544;-81
2024/01/30 12:21:21;;;;;;;8.48;7.60;;;11.50;44.10;;;;;;20731;6740;306633;-80
2024/01/30 12:23:58;;;;;;;7.87;7.28;;;11.70;43.90;;;;;;20662;6727;304873;-82
2024/01/30 12:26:33;;;;;;;8.03;6.93;;;12.00;43.10;;;;;;21081;6695;117833;-76
2024/01/30 12:29:08;;;;;;;8.90;6.67;;;11.90;43.20;;;;;;21045;6696;117381;-77
2024/01/30 12:31:46;;;;;;;7.43;6.73;;;11.80;43.70;;;;;;20938;6723;117326;-74
2024/01/30 12:34:22;;;;;;;6.57;5.87;;;11.70;44.20;;;;;;20865;6723;119350;-74
2024/01/30 12:36:58;;;;;;;8.77;6.40;;;11.50;44.40;;;;;;21058;6712;117368;-75
2024/01/30 12:39:36;;;;;;;7.90;7.17;;;11.40;44.50;;;;;;21082;6698;116813;-76
2024/01/30 12:42:12;;;;;;;9.18;8.32;;;11.30;44.80;;;;;;20746;6726;334963;-75
2024/01/30 12:44:46;;;;;;;9.87;7.53;;;11.50;44.20;;;;;;20848;6722;117250;-75
2024/01/30 12:47:26;;;;;;;8.13;7.63;;;11.80;44.00;;;;;;20771;6726;306489;-74
2024/01/30 12:49:59;;;;;;;7.10;6.50;;;11.90;44.20;;;;;;20991;6716;117026;-74
2024/01/30 12:52:34;;;;;;;7.73;6.87;;;11.90;44.20;;;;;;20968;6723;117240;-74